Soesterberg, Nederland

9:43 AM CEST op 25 oktober 2014 (GMT +0200)
Weerstation Hees | Change Station
CLOSE
Current Station
Persoonlijk weerstation
Location: Soest, UTRECHT
Geometrische hoogte: 23 ft
Nabije weerstations

Hoogte 23 ft 52.16 °N, 5.29 °E | Updated 4 minutes ago

Scattered Clouds
Licht bewolkt
54.7 °F
Voelt als 54.7 °F
N
3.0
Wind Variabel Wind van ZW
Gusts 5.0 mijl/u

Vandaag
Hoog -- | Laag -- °F
--% Kans op neerslag
Gisteren
Hoog -- | Laag -- °F
Precip. -- inches
8:21 AM 6:23 PM
Nieuwe maan, 2% visible
Druk 30.04 inches
Zicht 2.5 mijlen
Wolken Gering 2000 ft
Licht bewolkt 4800 ft
Dauwpunt 55 °F
Vochtigheid 100%
Neerslag 0.00 inches
Dikte sneeuw Niet beschikbaar.
UV 0 van de 12
Pollen Niet beschikbaar.
Luchtkwaliteit Niet beschikbaar.
Flu Activity Niet beschikbaar.
METAR EHAM 250725Z 21006KT 4000 BR FEW020 SCT048 12/12 Q1017 BECMG 8000

More Conditions Fewer Conditions

Druk 30.04 inches
Zicht 2.5 mijlen
Wolken Gering 2000 ft
Licht bewolkt 4800 ft
Dauwpunt 55 °F
Vochtigheid 100%
Neerslag 0.00 inches
Dikte sneeuw Niet beschikbaar.
UV 0 van de 12
Pollen Niet beschikbaar.
Luchtkwaliteit Niet beschikbaar.
Flu Activity Niet beschikbaar.
METAR EHAM 250725Z 21006KT 4000 BR FEW020 SCT048 12/12 Q1017 BECMG 8000

More Conditions Fewer Conditions

10-Day Weather Forecast

Almanac

Astronomie

Oct. 25, 2014 Opkomst Ondergang
Werkelijke tijd 8:21 AM CEST 6:23 PM CEST
Burgerlijke schemering 7:46 AM CEST 6:58 PM CEST
Nautische schemering 7:06 AM CEST 7:38 PM CEST
Astronomische schemering 6:27 AM CEST 8:17 PM CEST
Maan 9:52 AM CEST 7:25 PM CEST
Golflengte van het zichtbare licht 11h 12m
Daglengte
10h 02m
Tomorrow will be 3m 49s shorter.
Nieuwe maan, 2% of the Moon is Illuminated
Vandaag
Nieuwe maan
oktober 30
Eerste kwartier
nov 6
Volle maan
nov 14
Laatste kwartier
nov 22
Nieuw

Extremen gisteren

Country Highs Country Lows

Community

WunderPhotos

Upload Photos

1,764,791 foto’s ge-upload!

Nearby

Luchtkwaliteit

Not available.

Dikte sneeuw

Not available.

Aardbevingen

Stad Distance Mag. Time & Date
No recent earthquake activity has been reported nearby.
Minimum magnitude displayed is 2.5.

Watertemperatuur langs de kust

Plaats Temperatuur
Geen meldingen van stations

Nabije weerstations